Date,TemperatureHighF,TemperatureAvgF,TemperatureLowF,DewpointHighF,DewpointAvgF,DewpointLowF,HumidityHigh,HumidityAvg,HumidityLow,PressureMaxIn,PressureMinIn,WindSpeedMaxMPH,WindSpeedAvgMPH,GustSpeedMaxMPH,PrecipitationSumIn
2013-2-1,67,50,39,41,38,34,91,66,32,30.45,30.33,9,0,0,0.00
2013-2-2,71,54,40,51,45,38,95,73,41,30.37,30.20,10,1,0,0.00
2013-2-3,70,55,43,52,39,23,97,62,19,30.33,30.14,11,1,0,0.00
2013-2-4,61,52,42,54,46,37,97,82,68,30.15,29.98,5,0,0,0.08
2013-2-5,72,61,55,62,57,54,98,89,65,30.06,29.97,6,0,0,0.00
2013-2-6,64,60,53,60,58,53,99,92,82,30.15,29.99,9,2,0,0.25
2013-2-7,71,60,53,60,57,52,99,91,68,30.00,29.83,16,1,16,1.32
2013-2-8,70,59,52,60,54,49,99,87,63,30.21,30.00,12,1,13,0.01
2013-2-9,64,57,49,59,52,45,93,84,72,30.26,30.06,10,2,12,0.01
2013-2-10,76,69,60,71,66,59,96,91,84,30.07,29.90,17,3,20,0.07
2013-2-11,71,58,54,69,57,52,98,95,85,30.18,29.99,13,2,20,1.57
2013-2-12,68,58,54,67,58,51,99,97,91,30.10,29.77,10,1,12,0.49
2013-2-13,58,50,38,51,45,37,96,82,57,30.12,29.91,10,1,0,0.01
2013-2-14,62,47,35,42,38,34,99,76,38,30.20,30.09,6,0,0,0.00
2013-2-15,66,51,36,45,39,35,99,66,35,30.23,30.12,9,1,0,0.00
2013-2-16,53,46,34,40,28,17,79,52,26,30.37,30.23,18,2,18,0.00
2013-2-17,64,48,32,40,33,26,92,59,34,30.39,30.24,12,1,12,0.00
2013-2-18,65,56,43,61,51,38,92,82,65,30.26,29.98,16,2,18,0.48
2013-2-19,66,57,46,62,41,23,96,61,24,30.29,29.98,15,2,16,1.72
2013-2-20,60,50,40,41,32,26,68,51,29,30.30,30.06,14,2,15,0.00
2013-2-21,72,61,50,69,55,39,97,80,64,30.06,29.78,14,3,17,0.23
2013-2-22,70,62,54,68,54,47,95,77,51,30.03,29.89,8,1,0,0.49
2013-2-23,62,55,50,54,51,48,97,88,70,30.01,29.91,9,1,0,0.00
2013-2-24,72,57,44,58,51,43,97,82,54,30.02,29.77,10,2,0,0.97
2013-2-25,66,62,56,65,58,39,98,91,48,29.80,29.46,16,2,20,1.35
2013-2-26,60,52,45,44,38,33,86,60,46,29.97,29.62,16,3,19,0.00
2013-2-27,71,56,43,50,42,37,96,63,29,30.10,29.96,12,1,14,0.00
2013-2-28,54,47,42,38,32,27,78,57,40,30.21,30.10,13,1,14,0.00